sensor_id;sensor_type;location;lat;lon;timestamp;pressure;altitude;pressure_sealevel;temperature;humidity
61761;BME280;47664;51.660;-0.100;2023-07-13T00:01:15;100715.88;;;16.96;49.20
61761;BME280;47664;51.660;-0.100;2023-07-13T00:03:42;100721.46;;;16.65;49.71
61761;BME280;47664;51.660;-0.100;2023-07-13T00:06:10;100724.11;;;17.04;49.10
61761;BME280;47664;51.660;-0.100;2023-07-13T00:08:38;100727.38;;;17.47;48.34
61761;BME280;47664;51.660;-0.100;2023-07-13T00:11:05;100727.10;;;17.49;47.99
61761;BME280;47664;51.660;-0.100;2023-07-13T00:13:32;100728.87;;;17.27;48.75
61761;BME280;47664;51.660;-0.100;2023-07-13T00:15:59;100729.44;;;17.38;48.72
61761;BME280;47664;51.660;-0.100;2023-07-13T00:18:26;100728.24;;;16.85;49.14
61761;BME280;47664;51.660;-0.100;2023-07-13T00:20:52;100726.82;;;17.10;49.07
61761;BME280;47664;51.660;-0.100;2023-07-13T00:23:20;100723.41;;;17.36;48.65
61761;BME280;47664;51.660;-0.100;2023-07-13T00:25:47;100724.55;;;17.01;49.28
61761;BME280;47664;51.660;-0.100;2023-07-13T00:28:14;100726.39;;;17.01;49.62
61761;BME280;47664;51.660;-0.100;2023-07-13T00:30:41;100722.14;;;16.90;49.79
61761;BME280;47664;51.660;-0.100;2023-07-13T00:33:08;100721.18;;;16.84;49.49
61761;BME280;47664;51.660;-0.100;2023-07-13T00:35:36;100720.67;;;17.34;49.12
61761;BME280;47664;51.660;-0.100;2023-07-13T00:38:03;100722.20;;;16.97;49.81
61761;BME280;47664;51.660;-0.100;2023-07-13T00:40:30;100727.67;;;16.67;50.31
61761;BME280;47664;51.660;-0.100;2023-07-13T00:42:59;100727.84;;;16.67;50.37
61761;BME280;47664;51.660;-0.100;2023-07-13T00:46:32;100727.11;;;16.90;50.13
61761;BME280;47664;51.660;-0.100;2023-07-13T00:49:04;100728.24;;;16.84;50.19
61761;BME280;47664;51.660;-0.100;2023-07-13T00:51:40;100731.49;;;16.78;50.50
61761;BME280;47664;51.660;-0.100;2023-07-13T00:54:12;100726.92;;;16.57;51.04
61761;BME280;47664;51.660;-0.100;2023-07-13T00:56:42;100725.48;;;17.02;50.26
61761;BME280;47664;51.660;-0.100;2023-07-13T00:59:12;100724.09;;;17.16;49.96
61761;BME280;47664;51.660;-0.100;2023-07-13T01:01:40;100720.18;;;16.87;49.55
61761;BME280;47664;51.660;-0.100;2023-07-13T01:04:07;100724.04;;;16.91;50.40
61761;BME280;47664;51.660;-0.100;2023-07-13T01:06:35;100724.24;;;17.11;50.02
61761;BME280;47664;51.660;-0.100;2023-07-13T01:09:03;100725.37;;;17.05;50.26
61761;BME280;47664;51.660;-0.100;2023-07-13T01:11:31;100726.47;;;16.80;50.36
61761;BME280;47664;51.660;-0.100;2023-07-13T01:13:57;100728.50;;;16.85;50.74
61761;BME280;47664;51.660;-0.100;2023-07-13T01:16:28;100726.85;;;16.84;50.79
61761;BME280;47664;51.660;-0.100;2023-07-13T01:18:58;100728.33;;;17.05;50.43
61761;BME280;47664;51.660;-0.100;2023-07-13T01:21:27;100730.40;;;17.23;50.25
61761;BME280;47664;51.660;-0.100;2023-07-13T01:23:54;100731.17;;;16.70;50.83
61761;BME280;47664;51.660;-0.100;2023-07-13T01:26:21;100731.86;;;17.15;50.47
61761;BME280;47664;51.660;-0.100;2023-07-13T01:28:48;100735.61;;;16.83;51.04
61761;BME280;47664;51.660;-0.100;2023-07-13T01:31:15;100731.88;;;16.69;51.09
61761;BME280;47664;51.660;-0.100;2023-07-13T01:33:43;100731.92;;;16.44;51.93
61761;BME280;47664;51.660;-0.100;2023-07-13T01:36:11;100731.76;;;16.64;51.63
61761;BME280;47664;51.660;-0.100;2023-07-13T01:38:38;100730.75;;;16.61;51.88
61761;BME280;47664;51.660;-0.100;2023-07-13T01:41:05;100728.25;;;16.96;51.33
61761;BME280;47664;51.660;-0.100;2023-07-13T01:43:32;100731.43;;;16.91;51.30
61761;BME280;47664;51.660;-0.100;2023-07-13T01:45:59;100728.09;;;16.56;52.51
61761;BME280;47664;51.660;-0.100;2023-07-13T01:48:26;100729.09;;;16.64;51.95
61761;BME280;47664;51.660;-0.100;2023-07-13T01:50:53;100726.24;;;16.94;51.52
61761;BME280;47664;51.660;-0.100;2023-07-13T01:53:20;100727.49;;;16.69;51.82
61761;BME280;47664;51.660;-0.100;2023-07-13T01:55:47;100726.45;;;16.90;51.44
61761;BME280;47664;51.660;-0.100;2023-07-13T01:58:14;100725.55;;;16.29;52.49
61761;BME280;47664;51.660;-0.100;2023-07-13T02:00:41;100723.90;;;16.25;52.71
61761;BME280;47664;51.660;-0.100;2023-07-13T02:03:09;100723.42;;;16.29;52.70
61761;BME280;47664;51.660;-0.100;2023-07-13T02:05:36;100718.88;;;16.29;52.54
61761;BME280;47664;51.660;-0.100;2023-07-13T02:08:04;100712.47;;;16.70;52.83
61761;BME280;47664;51.660;-0.100;2023-07-13T02:10:30;100713.09;;;16.23;52.87
61761;BME280;47664;51.660;-0.100;2023-07-13T02:12:58;100708.94;;;16.39;52.83
61761;BME280;47664;51.660;-0.100;2023-07-13T02:15:25;100710.64;;;16.22;52.90
61761;BME280;47664;51.660;-0.100;2023-07-13T02:17:52;100712.19;;;16.35;53.24
61761;BME280;47664;51.660;-0.100;2023-07-13T02:20:19;100709.55;;;16.18;52.77
61761;BME280;47664;51.660;-0.100;2023-07-13T02:22:46;100709.27;;;16.50;52.61
61761;BME280;47664;51.660;-0.100;2023-07-13T02:25:13;100704.63;;;16.58;52.56
61761;BME280;47664;51.660;-0.100;2023-07-13T02:27:40;100707.61;;;16.83;51.97
61761;BME280;47664;51.660;-0.100;2023-07-13T02:30:09;100705.74;;;16.74;52.29
61761;BME280;47664;51.660;-0.100;2023-07-13T02:32:37;100710.29;;;16.84;52.03
61761;BME280;47664;51.660;-0.100;2023-07-13T02:35:05;100710.06;;;16.90;52.34
61761;BME280;47664;51.660;-0.100;2023-07-13T02:37:32;100704.89;;;16.68;52.27
61761;BME280;47664;51.660;-0.100;2023-07-13T02:39:59;100707.22;;;16.65;52.32
61761;BME280;47664;51.660;-0.100;2023-07-13T02:42:27;100706.54;;;16.88;52.52
61761;BME280;47664;51.660;-0.100;2023-07-13T02:44:54;100704.88;;;16.43;53.33
61761;BME280;47664;51.660;-0.100;2023-07-13T02:47:21;100704.63;;;16.42;53.48
61761;BME280;47664;51.660;-0.100;2023-07-13T02:49:48;100706.87;;;16.50;53.70
61761;BME280;47664;51.660;-0.100;2023-07-13T02:52:14;100712.07;;;15.75;54.35
61761;BME280;47664;51.660;-0.100;2023-07-13T02:54:41;100713.38;;;16.19;54.15
61761;BME280;47664;51.660;-0.100;2023-07-13T02:57:08;100713.78;;;16.02;54.03
61761;BME280;47664;51.660;-0.100;2023-07-13T02:59:36;100718.08;;;16.42;53.69
61761;BME280;47664;51.660;-0.100;2023-07-13T03:02:03;100714.17;;;16.51;54.05
61761;BME280;47664;51.660;-0.100;2023-07-13T03:04:31;100716.35;;;15.98;54.22
61761;BME280;47664;51.660;-0.100;2023-07-13T03:06:58;100719.10;;;16.19;53.89
61761;BME280;47664;51.660;-0.100;2023-07-13T03:09:25;100719.50;;;16.17;53.75
61761;BME280;47664;51.660;-0.100;2023-07-13T03:11:53;100718.25;;;16.07;53.97
61761;BME280;47664;51.660;-0.100;2023-07-13T03:14:20;100717.50;;;16.10;54.38
61761;BME280;47664;51.660;-0.100;2023-07-13T03:16:48;100719.37;;;16.10;55.02
61761;BME280;47664;51.660;-0.100;2023-07-13T03:19:15;100719.74;;;15.89;54.92
61761;BME280;47664;51.660;-0.100;2023-07-13T03:21:42;100717.40;;;15.99;55.27
61761;BME280;47664;51.660;-0.100;2023-07-13T03:24:09;100716.81;;;15.74;55.18
61761;BME280;47664;51.660;-0.100;2023-07-13T03:26:39;100717.46;;;15.55;55.04
61761;BME280;47664;51.660;-0.100;2023-07-13T03:29:06;100720.97;;;15.95;55.25
61761;BME280;47664;51.660;-0.100;2023-07-13T03:31:35;100721.59;;;15.73;54.56
61761;BME280;47664;51.660;-0.100;2023-07-13T03:34:02;100728.81;;;16.18;54.68
61761;BME280;47664;51.660;-0.100;2023-07-13T03:36:31;100732.25;;;15.79;54.48
61761;BME280;47664;51.660;-0.100;2023-07-13T03:39:00;100733.27;;;16.29;53.88
61761;BME280;47664;51.660;-0.100;2023-07-13T03:41:27;100736.22;;;16.05;53.82
61761;BME280;47664;51.660;-0.100;2023-07-13T03:43:54;100737.96;;;16.04;54.13
61761;BME280;47664;51.660;-0.100;2023-07-13T03:46:21;100737.60;;;15.88;54.17
61761;BME280;47664;51.660;-0.100;2023-07-13T03:48:49;100736.78;;;16.12;54.48
61761;BME280;47664;51.660;-0.100;2023-07-13T03:51:17;100742.55;;;16.17;53.93
61761;BME280;47664;51.660;-0.100;2023-07-13T03:53:46;100743.01;;;16.20;53.30
61761;BME280;47664;51.660;-0.100;2023-07-13T03:56:14;100747.33;;;16.08;53.35
61761;BME280;47664;51.660;-0.100;2023-07-13T03:58:43;100745.36;;;16.09;53.34
61761;BME280;47664;51.660;-0.100;2023-07-13T04:01:12;100746.64;;;15.89;53.63
61761;BME280;47664;51.660;-0.100;2023-07-13T04:03:41;100745.19;;;15.80;53.89
61761;BME280;47664;51.660;-0.100;2023-07-13T04:06:17;100748.18;;;16.37;53.63
61761;BME280;47664;51.660;-0.100;2023-07-13T04:08:44;100751.62;;;15.91;53.43
61761;BME280;47664;51.660;-0.100;2023-07-13T04:11:11;100756.15;;;15.78;53.75
61761;BME280;47664;51.660;-0.100;2023-07-13T04:13:39;100757.81;;;16.10;53.88
61761;BME280;47664;51.660;-0.100;2023-07-13T04:16:06;100760.37;;;15.79;53.77
61761;BME280;47664;51.660;-0.100;2023-07-13T04:18:33;100764.06;;;15.93;54.09
61761;BME280;47664;51.660;-0.100;2023-07-13T04:21:00;100766.84;;;15.82;53.75
61761;BME280;47664;51.660;-0.100;2023-07-13T04:23:28;100769.86;;;15.79;53.93
61761;BME280;47664;51.660;-0.100;2023-07-13T04:25:54;100769.14;;;16.12;53.71
61761;BME280;47664;51.660;-0.100;2023-07-13T04:28:27;100771.23;;;15.90;53.79
61761;BME280;47664;51.660;-0.100;2023-07-13T04:30:54;100772.26;;;16.17;53.66
61761;BME280;47664;51.660;-0.100;2023-07-13T04:33:20;100772.60;;;15.96;53.65
61761;BME280;47664;51.660;-0.100;2023-07-13T04:35:48;100776.70;;;16.21;53.15
61761;BME280;47664;51.660;-0.100;2023-07-13T04:38:16;100779.60;;;15.99;53.52
61761;BME280;47664;51.660;-0.100;2023-07-13T04:40:45;100780.46;;;16.13;53.42
61761;BME280;47664;51.660;-0.100;2023-07-13T04:43:12;100780.98;;;15.95;53.20
61761;BME280;47664;51.660;-0.100;2023-07-13T04:45:38;100781.38;;;16.17;53.38
61761;BME280;47664;51.660;-0.100;2023-07-13T04:48:05;100781.41;;;16.47;52.78
61761;BME280;47664;51.660;-0.100;2023-07-13T04:50:33;100778.36;;;16.42;52.82
61761;BME280;47664;51.660;-0.100;2023-07-13T04:53:02;100779.77;;;16.58;52.79
61761;BME280;47664;51.660;-0.100;2023-07-13T04:55:30;100781.31;;;16.39;53.28
61761;BME280;47664;51.660;-0.100;2023-07-13T04:57:58;100779.55;;;16.45;53.21
61761;BME280;47664;51.660;-0.100;2023-07-13T05:00:26;100785.64;;;16.31;53.65
61761;BME280;47664;51.660;-0.100;2023-07-13T05:02:54;100786.32;;;16.40;53.68
61761;BME280;47664;51.660;-0.100;2023-07-13T05:05:22;100791.40;;;16.36;53.71
61761;BME280;47664;51.660;-0.100;2023-07-13T05:07:51;100795.71;;;16.35;53.71
61761;BME280;47664;51.660;-0.100;2023-07-13T05:10:18;100790.32;;;16.04;54.51
61761;BME280;47664;51.660;-0.100;2023-07-13T05:12:45;100789.95;;;16.29;54.67
61761;BME280;47664;51.660;-0.100;2023-07-13T05:15:12;100792.84;;;16.14;54.43
61761;BME280;47664;51.660;-0.100;2023-07-13T05:17:40;100797.59;;;16.26;54.81
61761;BME280;47664;51.660;-0.100;2023-07-13T05:20:08;100799.05;;;16.27;54.84
61761;BME280;47664;51.660;-0.100;2023-07-13T05:22:35;100800.00;;;16.15;54.76
61761;BME280;47664;51.660;-0.100;2023-07-13T05:25:05;100801.83;;;16.04;54.88
61761;BME280;47664;51.660;-0.100;2023-07-13T05:27:33;100803.23;;;16.30;54.81
61761;BME280;47664;51.660;-0.100;2023-07-13T05:30:00;100805.54;;;16.60;54.77
61761;BME280;47664;51.660;-0.100;2023-07-13T05:32:28;100809.67;;;16.60;54.70
61761;BME280;47664;51.660;-0.100;2023-07-13T05:34:55;100813.40;;;16.43;54.29
61761;BME280;47664;51.660;-0.100;2023-07-13T05:37:22;100809.72;;;16.26;54.66
61761;BME280;47664;51.660;-0.100;2023-07-13T05:39:49;100813.51;;;16.02;55.39
61761;BME280;47664;51.660;-0.100;2023-07-13T05:42:15;100817.76;;;16.25;54.54
61761;BME280;47664;51.660;-0.100;2023-07-13T05:44:42;100819.90;;;16.53;54.56
61761;BME280;47664;51.660;-0.100;2023-07-13T05:47:10;100816.10;;;15.89;55.58
61761;BME280;47664;51.660;-0.100;2023-07-13T05:49:37;100816.96;;;16.38;54.92
61761;BME280;47664;51.660;-0.100;2023-07-13T05:52:04;100816.49;;;16.04;55.93
61761;BME280;47664;51.660;-0.100;2023-07-13T05:54:31;100824.07;;;16.00;56.02
61761;BME280;47664;51.660;-0.100;2023-07-13T05:56:58;100830.01;;;16.55;55.51
61761;BME280;47664;51.660;-0.100;2023-07-13T05:59:25;100833.78;;;16.36;55.25
61761;BME280;47664;51.660;-0.100;2023-07-13T06:01:52;100835.97;;;16.52;54.94
61761;BME280;47664;51.660;-0.100;2023-07-13T06:04:19;100837.60;;;16.37;55.11
61761;BME280;47664;51.660;-0.100;2023-07-13T06:06:47;100838.94;;;16.10;55.70
61761;BME280;47664;51.660;-0.100;2023-07-13T06:09:14;100839.09;;;15.92;56.10
61761;BME280;47664;51.660;-0.100;2023-07-13T06:11:41;100842.57;;;15.96;56.50
61761;BME280;47664;51.660;-0.100;2023-07-13T06:14:10;100844.90;;;16.16;56.27
61761;BME280;47664;51.660;-0.100;2023-07-13T06:16:39;100850.13;;;16.32;56.92
61761;BME280;47664;51.660;-0.100;2023-07-13T06:19:06;100851.97;;;15.98;56.71
61761;BME280;47664;51.660;-0.100;2023-07-13T06:21:33;100855.88;;;16.48;56.15
61761;BME280;47664;51.660;-0.100;2023-07-13T06:24:00;100860.03;;;16.37;55.56
61761;BME280;47664;51.660;-0.100;2023-07-13T06:26:27;100861.43;;;16.84;54.99
61761;BME280;47664;51.660;-0.100;2023-07-13T06:28:54;100861.91;;;16.56;55.18
61761;BME280;47664;51.660;-0.100;2023-07-13T06:31:21;100862.37;;;16.49;55.41
61761;BME280;47664;51.660;-0.100;2023-07-13T06:33:48;100860.39;;;16.17;55.76
61761;BME280;47664;51.660;-0.100;2023-07-13T06:36:15;100867.70;;;16.57;55.75
61761;BME280;47664;51.660;-0.100;2023-07-13T06:38:43;100866.59;;;17.02;55.05
61761;BME280;47664;51.660;-0.100;2023-07-13T06:41:10;100867.05;;;16.82;55.03
61761;BME280;47664;51.660;-0.100;2023-07-13T06:43:37;100863.85;;;16.50;56.53
61761;BME280;47664;51.660;-0.100;2023-07-13T06:46:05;100863.54;;;16.50;56.47
61761;BME280;47664;51.660;-0.100;2023-07-13T06:48:32;100866.44;;;17.10;55.46
61761;BME280;47664;51.660;-0.100;2023-07-13T06:50:59;100870.19;;;17.63;54.60
61761;BME280;47664;51.660;-0.100;2023-07-13T06:53:25;100870.91;;;17.62;53.75
61761;BME280;47664;51.660;-0.100;2023-07-13T06:55:52;100870.79;;;17.56;53.95
61761;BME280;47664;51.660;-0.100;2023-07-13T06:58:19;100875.05;;;17.45;53.71
61761;BME280;47664;51.660;-0.100;2023-07-13T07:00:49;100874.92;;;17.22;54.37
61761;BME280;47664;51.660;-0.100;2023-07-13T07:03:17;100876.55;;;17.04;54.64
61761;BME280;47664;51.660;-0.100;2023-07-13T07:05:45;100878.21;;;17.54;54.22
61761;BME280;47664;51.660;-0.100;2023-07-13T07:08:12;100883.88;;;17.05;54.43
61761;BME280;47664;51.660;-0.100;2023-07-13T07:10:40;100886.19;;;17.35;54.95
61761;BME280;47664;51.660;-0.100;2023-07-13T07:13:07;100887.85;;;17.11;55.56
61761;BME280;47664;51.660;-0.100;2023-07-13T07:15:35;100889.43;;;17.36;54.73
61761;BME280;47664;51.660;-0.100;2023-07-13T07:18:03;100890.35;;;17.52;54.22
61761;BME280;47664;51.660;-0.100;2023-07-13T07:20:30;100891.63;;;17.70;53.82
61761;BME280;47664;51.660;-0.100;2023-07-13T07:22:57;100896.12;;;17.79;53.92
61761;BME280;47664;51.660;-0.100;2023-07-13T07:25:24;100897.83;;;16.97;54.85
61761;BME280;47664;51.660;-0.100;2023-07-13T07:27:51;100898.02;;;17.51;54.03
61761;BME280;47664;51.660;-0.100;2023-07-13T07:30:18;100899.21;;;17.90;53.29
61761;BME280;47664;51.660;-0.100;2023-07-13T07:32:45;100897.08;;;18.04;53.17
61761;BME280;47664;51.660;-0.100;2023-07-13T07:35:12;100898.97;;;17.46;53.90
61761;BME280;47664;51.660;-0.100;2023-07-13T07:37:40;100901.53;;;17.93;54.12
61761;BME280;47664;51.660;-0.100;2023-07-13T07:40:08;100900.89;;;18.05;53.82
61761;BME280;47664;51.660;-0.100;2023-07-13T07:42:35;100910.10;;;17.86;53.43
61761;BME280;47664;51.660;-0.100;2023-07-13T07:45:02;100908.46;;;17.81;53.59
61761;BME280;47664;51.660;-0.100;2023-07-13T07:47:30;100908.90;;;18.21;52.86
61761;BME280;47664;51.660;-0.100;2023-07-13T07:49:57;100911.17;;;17.98;53.03
61761;BME280;47664;51.660;-0.100;2023-07-13T07:52:24;100912.40;;;17.69;53.56
61761;BME280;47664;51.660;-0.100;2023-07-13T07:54:51;100918.56;;;17.78;53.56
61761;BME280;47664;51.660;-0.100;2023-07-13T07:57:18;100922.38;;;17.87;52.82
61761;BME280;47664;51.660;-0.100;2023-07-13T07:59:45;100927.03;;;18.30;52.57
61761;BME280;47664;51.660;-0.100;2023-07-13T08:02:12;100927.84;;;17.86;52.60
61761;BME280;47664;51.660;-0.100;2023-07-13T08:04:40;100926.45;;;18.93;51.72
61761;BME280;47664;51.660;-0.100;2023-07-13T08:07:08;100926.39;;;18.97;51.35
61761;BME280;47664;51.660;-0.100;2023-07-13T08:09:35;100927.33;;;18.52;51.23
61761;BME280;47664;51.660;-0.100;2023-07-13T08:12:03;100924.05;;;18.62;50.86
61761;BME280;47664;51.660;-0.100;2023-07-13T08:14:30;100926.04;;;18.42;51.52
61761;BME280;47664;51.660;-0.100;2023-07-13T08:16:57;100928.33;;;18.31;52.17
61761;BME280;47664;51.660;-0.100;2023-07-13T08:19:24;100932.70;;;18.37;51.57
61761;BME280;47664;51.660;-0.100;2023-07-13T08:21:51;100931.25;;;18.35;52.11
61761;BME280;47664;51.660;-0.100;2023-07-13T08:24:22;100930.97;;;18.25;51.83
61761;BME280;47664;51.660;-0.100;2023-07-13T08:26:49;100932.11;;;18.22;52.26
61761;BME280;47664;51.660;-0.100;2023-07-13T08:29:17;100938.45;;;17.68;52.90
61761;BME280;47664;51.660;-0.100;2023-07-13T08:31:44;100934.96;;;18.01;52.80
61761;BME280;47664;51.660;-0.100;2023-07-13T08:34:11;100933.59;;;17.73;52.87
61761;BME280;47664;51.660;-0.100;2023-07-13T08:36:39;100933.46;;;18.09;52.79
61761;BME280;47664;51.660;-0.100;2023-07-13T08:39:06;100931.35;;;17.76;53.51
61761;BME280;47664;51.660;-0.100;2023-07-13T08:41:33;100927.79;;;17.96;53.67
61761;BME280;47664;51.660;-0.100;2023-07-13T08:44:03;100926.88;;;18.00;53.95
61761;BME280;47664;51.660;-0.100;2023-07-13T08:46:42;100930.40;;;18.35;53.65
61761;BME280;47664;51.660;-0.100;2023-07-13T08:49:13;100927.91;;;18.57;52.78
61761;BME280;47664;51.660;-0.100;2023-07-13T08:51:44;100925.09;;;18.30;52.28
61761;BME280;47664;51.660;-0.100;2023-07-13T08:54:21;100924.46;;;18.35;52.56
61761;BME280;47664;51.660;-0.100;2023-07-13T08:56:50;100930.12;;;18.15;52.56
61761;BME280;47664;51.660;-0.100;2023-07-13T08:59:21;100925.78;;;18.45;52.12
61761;BME280;47664;51.660;-0.100;2023-07-13T09:02:03;100923.26;;;18.47;51.51
61761;BME280;47664;51.660;-0.100;2023-07-13T09:04:36;100918.60;;;18.67;52.09
61761;BME280;47664;51.660;-0.100;2023-07-13T09:07:14;100920.09;;;18.65;51.55
61761;BME280;47664;51.660;-0.100;2023-07-13T09:09:58;100927.23;;;18.70;51.79
61761;BME280;47664;51.660;-0.100;2023-07-13T09:12:35;100923.91;;;18.83;50.97
61761;BME280;47664;51.660;-0.100;2023-07-13T09:15:23;100926.25;;;18.56;51.48
61761;BME280;47664;51.660;-0.100;2023-07-13T09:17:53;100920.69;;;18.46;51.93
61761;BME280;47664;51.660;-0.100;2023-07-13T09:20:27;100921.83;;;18.11;52.12
61761;BME280;47664;51.660;-0.100;2023-07-13T09:22:56;100923.01;;;18.21;52.49
61761;BME280;47664;51.660;-0.100;2023-07-13T09:25:30;100923.76;;;18.45;52.08
61761;BME280;47664;51.660;-0.100;2023-07-13T09:28:00;100922.45;;;18.95;52.33
61761;BME280;47664;51.660;-0.100;2023-07-13T09:30:35;100921.41;;;19.28;52.06
61761;BME280;47664;51.660;-0.100;2023-07-13T09:33:04;100924.35;;;19.34;50.15
61761;BME280;47664;51.660;-0.100;2023-07-13T09:35:31;100922.32;;;19.75;49.58
61761;BME280;47664;51.660;-0.100;2023-07-13T09:38:02;100922.23;;;20.35;48.76
61761;BME280;47664;51.660;-0.100;2023-07-13T09:40:40;100922.70;;;20.37;47.85
61761;BME280;47664;51.660;-0.100;2023-07-13T09:43:11;100924.05;;;20.92;47.56
61761;BME280;47664;51.660;-0.100;2023-07-13T09:45:40;100925.97;;;20.95;46.90
61761;BME280;47664;51.660;-0.100;2023-07-13T09:48:13;100925.02;;;20.94;45.95
61761;BME280;47664;51.660;-0.100;2023-07-13T09:50:40;100925.75;;;20.46;45.91
61761;BME280;47664;51.660;-0.100;2023-07-13T09:53:12;100919.53;;;20.52;45.47
61761;BME280;47664;51.660;-0.100;2023-07-13T09:55:42;100921.23;;;20.90;45.78
61761;BME280;47664;51.660;-0.100;2023-07-13T09:58:13;100928.09;;;20.80;45.32
61761;BME280;47664;51.660;-0.100;2023-07-13T10:00:41;100924.81;;;20.33;46.67
61761;BME280;47664;51.660;-0.100;2023-07-13T10:03:17;100931.41;;;20.32;47.18
61761;BME280;47664;51.660;-0.100;2023-07-13T10:05:46;100926.42;;;20.27;46.35
61761;BME280;47664;51.660;-0.100;2023-07-13T10:08:17;100923.46;;;20.28;46.30
61761;BME280;47664;51.660;-0.100;2023-07-13T10:10:46;100928.69;;;20.29;46.74
61761;BME280;47664;51.660;-0.100;2023-07-13T10:13:33;100921.23;;;20.24;46.01
61761;BME280;47664;51.660;-0.100;2023-07-13T10:16:02;100928.43;;;20.05;45.94
61761;BME280;47664;51.660;-0.100;2023-07-13T10:18:34;100925.34;;;20.20;46.09
61761;BME280;47664;51.660;-0.100;2023-07-13T10:21:12;100926.12;;;20.83;46.24
61761;BME280;47664;51.660;-0.100;2023-07-13T10:23:39;100928.71;;;20.94;44.99
61761;BME280;47664;51.660;-0.100;2023-07-13T10:26:12;100925.21;;;20.91;44.93
61761;BME280;47664;51.660;-0.100;2023-07-13T10:28:45;100919.49;;;21.90;43.45
61761;BME280;47664;51.660;-0.100;2023-07-13T10:31:15;100923.47;;;22.18;41.72
61761;BME280;47664;51.660;-0.100;2023-07-13T10:33:43;100921.05;;;21.73;43.44
61761;BME280;47664;51.660;-0.100;2023-07-13T10:36:16;100917.88;;;22.30;42.40
61761;BME280;47664;51.660;-0.100;2023-07-13T10:38:45;100925.68;;;22.69;41.79
61761;BME280;47664;51.660;-0.100;2023-07-13T10:41:17;100918.99;;;22.73;39.92
61761;BME280;47664;51.660;-0.100;2023-07-13T10:43:48;100916.03;;;23.26;38.58
61761;BME280;47664;51.660;-0.100;2023-07-13T10:46:19;100920.89;;;23.24;38.73
61761;BME280;47664;51.660;-0.100;2023-07-13T10:48:49;100920.95;;;23.20;38.73
61761;BME280;47664;51.660;-0.100;2023-07-13T10:51:19;100923.86;;;22.70;39.65
61761;BME280;47664;51.660;-0.100;2023-07-13T10:53:47;100913.11;;;23.44;38.04
61761;BME280;47664;51.660;-0.100;2023-07-13T10:56:24;100919.98;;;23.02;39.01
61761;BME280;47664;51.660;-0.100;2023-07-13T10:59:11;100919.06;;;23.09;38.77
61761;BME280;47664;51.660;-0.100;2023-07-13T11:01:46;100921.66;;;22.08;41.25
61761;BME280;47664;51.660;-0.100;2023-07-13T11:04:15;100917.94;;;21.54;41.48
61761;BME280;47664;51.660;-0.100;2023-07-13T11:06:43;100919.05;;;21.08;42.96
61761;BME280;47664;51.660;-0.100;2023-07-13T11:09:31;100919.45;;;21.25;41.61
61761;BME280;47664;51.660;-0.100;2023-07-13T11:11:59;100917.58;;;21.38;43.15
61761;BME280;47664;51.660;-0.100;2023-07-13T11:14:30;100919.90;;;21.13;43.72
61761;BME280;47664;51.660;-0.100;2023-07-13T11:16:58;100920.82;;;20.93;43.48
61761;BME280;47664;51.660;-0.100;2023-07-13T11:19:40;100918.91;;;21.07;43.75
61761;BME280;47664;51.660;-0.100;2023-07-13T11:22:16;100921.33;;;21.33;43.46
61761;BME280;47664;51.660;-0.100;2023-07-13T11:25:02;100925.09;;;21.03;43.13
61761;BME280;47664;51.660;-0.100;2023-07-13T11:27:51;100927.43;;;20.95;42.64
61761;BME280;47664;51.660;-0.100;2023-07-13T11:30:30;100927.47;;;20.67;43.05
61761;BME280;47664;51.660;-0.100;2023-07-13T11:33:16;100923.50;;;20.41;45.92
61761;BME280;47664;51.660;-0.100;2023-07-13T11:35:49;100924.43;;;20.79;47.14
61761;BME280;47664;51.660;-0.100;2023-07-13T11:38:21;100923.69;;;20.60;45.03
61761;BME280;47664;51.660;-0.100;2023-07-13T11:40:51;100924.41;;;20.91;45.38
61761;BME280;47664;51.660;-0.100;2023-07-13T11:43:21;100922.40;;;20.67;43.73
61761;BME280;47664;51.660;-0.100;2023-07-13T11:45:48;100929.94;;;20.82;44.48
61761;BME280;47664;51.660;-0.100;2023-07-13T11:48:19;100921.45;;;20.77;43.66
61761;BME280;47664;51.660;-0.100;2023-07-13T11:50:53;100921.51;;;20.95;43.30
61761;BME280;47664;51.660;-0.100;2023-07-13T11:53:23;100919.65;;;20.97;42.65
61761;BME280;47664;51.660;-0.100;2023-07-13T11:55:53;100917.66;;;21.41;42.31
61761;BME280;47664;51.660;-0.100;2023-07-13T11:58:23;100910.37;;;21.11;41.17
61761;BME280;47664;51.660;-0.100;2023-07-13T12:00:52;100911.44;;;21.28;40.56
61761;BME280;47664;51.660;-0.100;2023-07-13T12:03:21;100917.83;;;21.85;41.09
61761;BME280;47664;51.660;-0.100;2023-07-13T12:05:56;100919.52;;;22.13;40.69
61761;BME280;47664;51.660;-0.100;2023-07-13T12:08:24;100920.68;;;21.99;40.68
61761;BME280;47664;51.660;-0.100;2023-07-13T12:10:58;100914.38;;;22.35;40.98
61761;BME280;47664;51.660;-0.100;2023-07-13T12:13:26;100907.66;;;22.58;39.11
61761;BME280;47664;51.660;-0.100;2023-07-13T12:15:54;100901.23;;;22.91;38.93
61761;BME280;47664;51.660;-0.100;2023-07-13T12:18:28;100901.97;;;22.60;38.95
61761;BME280;47664;51.660;-0.100;2023-07-13T12:20:58;100902.88;;;22.22;39.84
61761;BME280;47664;51.660;-0.100;2023-07-13T12:23:29;100899.27;;;22.73;39.30
61761;BME280;47664;51.660;-0.100;2023-07-13T12:25:58;100899.31;;;22.67;39.39
61761;BME280;47664;51.660;-0.100;2023-07-13T12:28:32;100894.95;;;22.37;39.17
61761;BME280;47664;51.660;-0.100;2023-07-13T12:31:03;100887.73;;;22.68;37.88
61761;BME280;47664;51.660;-0.100;2023-07-13T12:33:31;100887.37;;;22.77;38.90
61761;BME280;47664;51.660;-0.100;2023-07-13T12:36:01;100881.54;;;22.88;38.54
61761;BME280;47664;51.660;-0.100;2023-07-13T12:38:31;100885.40;;;22.42;38.77
61761;BME280;47664;51.660;-0.100;2023-07-13T12:40:59;100882.07;;;22.22;39.14
61761;BME280;47664;51.660;-0.100;2023-07-13T12:43:28;100883.60;;;22.10;39.64
61761;BME280;47664;51.660;-0.100;2023-07-13T12:46:02;100883.38;;;22.44;39.48
61761;BME280;47664;51.660;-0.100;2023-07-13T12:48:30;100890.00;;;22.19;39.66
61761;BME280;47664;51.660;-0.100;2023-07-13T12:51:10;100889.10;;;21.73;40.28